sensor_id;sensor_type;location;lat;lon;timestamp;P1;durP1;ratioP1;P2;durP2;ratioP2
23121;SDS011;11730;51.248;22.534;2023-09-30T00:01:47;29.73;;;17.67;;
23121;SDS011;11730;51.248;22.534;2023-09-30T00:04:15;25.35;;;17.00;;
23121;SDS011;11730;51.248;22.534;2023-09-30T00:06:43;28.80;;;17.20;;
23121;SDS011;11730;51.248;22.534;2023-09-30T00:09:10;29.50;;;16.50;;
23121;SDS011;11730;51.248;22.534;2023-09-30T00:11:38;30.63;;;17.13;;
23121;SDS011;11730;51.248;22.534;2023-09-30T00:14:05;35.17;;;16.90;;
23121;SDS011;11730;51.248;22.534;2023-09-30T00:16:33;29.73;;;16.20;;
23121;SDS011;11730;51.248;22.534;2023-09-30T00:19:01;31.30;;;15.68;;
23121;SDS011;11730;51.248;22.534;2023-09-30T00:21:29;26.75;;;16.00;;
23121;SDS011;11730;51.248;22.534;2023-09-30T00:23:56;24.88;;;16.98;;
23121;SDS011;11730;51.248;22.534;2023-09-30T00:26:24;27.17;;;16.52;;
23121;SDS011;11730;51.248;22.534;2023-09-30T00:28:51;26.98;;;16.70;;
23121;SDS011;11730;51.248;22.534;2023-09-30T00:31:18;30.60;;;16.77;;
23121;SDS011;11730;51.248;22.534;2023-09-30T00:33:45;31.08;;;18.40;;
23121;SDS011;11730;51.248;22.534;2023-09-30T00:36:12;24.65;;;17.35;;
23121;SDS011;11730;51.248;22.534;2023-09-30T00:38:39;30.27;;;17.65;;
23121;SDS011;11730;51.248;22.534;2023-09-30T00:41:06;27.42;;;15.45;;
23121;SDS011;11730;51.248;22.534;2023-09-30T00:43:34;28.45;;;17.00;;
23121;SDS011;11730;51.248;22.534;2023-09-30T00:46:02;22.15;;;15.68;;
23121;SDS011;11730;51.248;22.534;2023-09-30T00:48:36;25.77;;;15.50;;
23121;SDS011;11730;51.248;22.534;2023-09-30T00:51:04;20.45;;;15.93;;
23121;SDS011;11730;51.248;22.534;2023-09-30T00:53:31;22.67;;;15.10;;
23121;SDS011;11730;51.248;22.534;2023-09-30T00:55:59;21.92;;;16.25;;
23121;SDS011;11730;51.248;22.534;2023-09-30T00:58:26;25.83;;;15.95;;
23121;SDS011;11730;51.248;22.534;2023-09-30T01:00:56;24.95;;;16.05;;
23121;SDS011;11730;51.248;22.534;2023-09-30T01:03:24;26.38;;;16.05;;
23121;SDS011;11730;51.248;22.534;2023-09-30T01:05:51;26.23;;;16.08;;
23121;SDS011;11730;51.248;22.534;2023-09-30T01:08:20;23.27;;;16.05;;
23121;SDS011;11730;51.248;22.534;2023-09-30T01:10:47;24.60;;;14.90;;
23121;SDS011;11730;51.248;22.534;2023-09-30T01:13:15;28.60;;;16.92;;
23121;SDS011;11730;51.248;22.534;2023-09-30T01:15:42;25.60;;;15.27;;
23121;SDS011;11730;51.248;22.534;2023-09-30T01:18:09;26.25;;;16.13;;
23121;SDS011;11730;51.248;22.534;2023-09-30T01:20:37;23.85;;;15.45;;
23121;SDS011;11730;51.248;22.534;2023-09-30T01:23:05;23.35;;;15.95;;
23121;SDS011;11730;51.248;22.534;2023-09-30T01:25:32;21.73;;;15.82;;
23121;SDS011;11730;51.248;22.534;2023-09-30T01:28:01;26.08;;;15.48;;
23121;SDS011;11730;51.248;22.534;2023-09-30T01:30:32;28.48;;;16.15;;
23121;SDS011;11730;51.248;22.534;2023-09-30T01:33:00;25.05;;;15.80;;
23121;SDS011;11730;51.248;22.534;2023-09-30T01:35:27;23.63;;;16.10;;
23121;SDS011;11730;51.248;22.534;2023-09-30T01:37:54;27.48;;;16.90;;
23121;SDS011;11730;51.248;22.534;2023-09-30T01:40:21;29.08;;;16.10;;
23121;SDS011;11730;51.248;22.534;2023-09-30T01:42:48;25.38;;;16.73;;
23121;SDS011;11730;51.248;22.534;2023-09-30T01:45:16;23.35;;;15.95;;
23121;SDS011;11730;51.248;22.534;2023-09-30T01:47:43;29.65;;;16.48;;
23121;SDS011;11730;51.248;22.534;2023-09-30T01:50:10;31.25;;;17.27;;
23121;SDS011;11730;51.248;22.534;2023-09-30T01:52:37;24.65;;;15.77;;
23121;SDS011;11730;51.248;22.534;2023-09-30T01:55:04;34.70;;;16.25;;
23121;SDS011;11730;51.248;22.534;2023-09-30T01:57:31;23.63;;;15.30;;
23121;SDS011;11730;51.248;22.534;2023-09-30T01:59:59;25.20;;;16.00;;
23121;SDS011;11730;51.248;22.534;2023-09-30T02:02:25;26.15;;;16.40;;
23121;SDS011;11730;51.248;22.534;2023-09-30T02:04:53;25.42;;;16.08;;
23121;SDS011;11730;51.248;22.534;2023-09-30T02:07:20;30.80;;;15.85;;
23121;SDS011;11730;51.248;22.534;2023-09-30T02:09:47;25.17;;;15.77;;
23121;SDS011;11730;51.248;22.534;2023-09-30T02:12:15;29.55;;;17.27;;
23121;SDS011;11730;51.248;22.534;2023-09-30T02:14:42;23.65;;;16.17;;
23121;SDS011;11730;51.248;22.534;2023-09-30T02:17:10;27.08;;;16.17;;
23121;SDS011;11730;51.248;22.534;2023-09-30T02:19:37;24.88;;;15.90;;
23121;SDS011;11730;51.248;22.534;2023-09-30T02:22:05;27.55;;;16.25;;
23121;SDS011;11730;51.248;22.534;2023-09-30T02:24:32;26.42;;;16.63;;
23121;SDS011;11730;51.248;22.534;2023-09-30T02:26:59;25.85;;;16.55;;
23121;SDS011;11730;51.248;22.534;2023-09-30T02:29:26;26.25;;;16.58;;
23121;SDS011;11730;51.248;22.534;2023-09-30T02:31:54;25.45;;;16.15;;
23121;SDS011;11730;51.248;22.534;2023-09-30T02:34:21;28.23;;;16.50;;
23121;SDS011;11730;51.248;22.534;2023-09-30T02:36:48;29.55;;;17.77;;
23121;SDS011;11730;51.248;22.534;2023-09-30T02:39:16;24.30;;;16.60;;
23121;SDS011;11730;51.248;22.534;2023-09-30T02:41:43;23.58;;;15.75;;
23121;SDS011;11730;51.248;22.534;2023-09-30T02:44:10;25.88;;;16.75;;
23121;SDS011;11730;51.248;22.534;2023-09-30T02:46:37;26.42;;;17.38;;
23121;SDS011;11730;51.248;22.534;2023-09-30T02:49:05;28.42;;;17.92;;
23121;SDS011;11730;51.248;22.534;2023-09-30T02:51:32;28.00;;;17.98;;
23121;SDS011;11730;51.248;22.534;2023-09-30T02:53:59;27.63;;;17.15;;
23121;SDS011;11730;51.248;22.534;2023-09-30T02:56:26;24.65;;;17.65;;
23121;SDS011;11730;51.248;22.534;2023-09-30T02:58:56;24.15;;;17.17;;
23121;SDS011;11730;51.248;22.534;2023-09-30T03:01:25;32.97;;;18.02;;
23121;SDS011;11730;51.248;22.534;2023-09-30T03:03:53;25.92;;;17.00;;
23121;SDS011;11730;51.248;22.534;2023-09-30T03:06:20;27.85;;;17.40;;
23121;SDS011;11730;51.248;22.534;2023-09-30T03:08:47;25.80;;;17.95;;
23121;SDS011;11730;51.248;22.534;2023-09-30T03:11:15;28.95;;;17.67;;
23121;SDS011;11730;51.248;22.534;2023-09-30T03:13:42;29.60;;;18.20;;
23121;SDS011;11730;51.248;22.534;2023-09-30T03:16:09;26.83;;;15.98;;
23121;SDS011;11730;51.248;22.534;2023-09-30T03:18:36;24.17;;;17.50;;
23121;SDS011;11730;51.248;22.534;2023-09-30T03:21:12;24.83;;;18.17;;
23121;SDS011;11730;51.248;22.534;2023-09-30T03:23:40;27.00;;;18.52;;
23121;SDS011;11730;51.248;22.534;2023-09-30T03:26:07;29.48;;;18.17;;
23121;SDS011;11730;51.248;22.534;2023-09-30T03:28:36;28.88;;;17.48;;
23121;SDS011;11730;51.248;22.534;2023-09-30T03:31:04;28.80;;;18.00;;
23121;SDS011;11730;51.248;22.534;2023-09-30T03:33:32;27.38;;;17.45;;
23121;SDS011;11730;51.248;22.534;2023-09-30T03:36:00;27.95;;;17.02;;
23121;SDS011;11730;51.248;22.534;2023-09-30T03:38:30;29.83;;;18.73;;
23121;SDS011;11730;51.248;22.534;2023-09-30T03:40:59;25.20;;;16.63;;
23121;SDS011;11730;51.248;22.534;2023-09-30T03:43:26;30.73;;;18.23;;
23121;SDS011;11730;51.248;22.534;2023-09-30T03:45:53;26.48;;;17.98;;
23121;SDS011;11730;51.248;22.534;2023-09-30T03:48:21;25.52;;;17.70;;
23121;SDS011;11730;51.248;22.534;2023-09-30T03:50:49;27.85;;;18.23;;
23121;SDS011;11730;51.248;22.534;2023-09-30T03:53:18;26.45;;;17.98;;
23121;SDS011;11730;51.248;22.534;2023-09-30T03:55:46;31.08;;;18.13;;
23121;SDS011;11730;51.248;22.534;2023-09-30T03:58:13;25.20;;;17.17;;
23121;SDS011;11730;51.248;22.534;2023-09-30T04:00:41;28.75;;;18.35;;
23121;SDS011;11730;51.248;22.534;2023-09-30T04:03:09;28.55;;;18.60;;
23121;SDS011;11730;51.248;22.534;2023-09-30T04:05:36;32.08;;;18.85;;
23121;SDS011;11730;51.248;22.534;2023-09-30T04:08:03;30.15;;;18.85;;
23121;SDS011;11730;51.248;22.534;2023-09-30T04:10:31;33.40;;;18.73;;
23121;SDS011;11730;51.248;22.534;2023-09-30T04:12:58;30.38;;;19.20;;
23121;SDS011;11730;51.248;22.534;2023-09-30T04:15:25;26.30;;;18.20;;
23121;SDS011;11730;51.248;22.534;2023-09-30T04:17:52;27.05;;;17.95;;
23121;SDS011;11730;51.248;22.534;2023-09-30T04:20:19;44.28;;;18.90;;
23121;SDS011;11730;51.248;22.534;2023-09-30T04:22:53;28.50;;;17.92;;
23121;SDS011;11730;51.248;22.534;2023-09-30T04:25:24;27.20;;;18.40;;
23121;SDS011;11730;51.248;22.534;2023-09-30T04:27:51;31.70;;;18.40;;
23121;SDS011;11730;51.248;22.534;2023-09-30T04:30:19;29.88;;;17.90;;
23121;SDS011;11730;51.248;22.534;2023-09-30T04:32:49;28.48;;;18.67;;
23121;SDS011;11730;51.248;22.534;2023-09-30T04:35:16;29.30;;;18.90;;
23121;SDS011;11730;51.248;22.534;2023-09-30T04:37:44;26.02;;;18.27;;
23121;SDS011;11730;51.248;22.534;2023-09-30T04:40:11;33.50;;;19.60;;
23121;SDS011;11730;51.248;22.534;2023-09-30T04:42:42;28.23;;;18.45;;
23121;SDS011;11730;51.248;22.534;2023-09-30T04:45:13;32.95;;;19.25;;
23121;SDS011;11730;51.248;22.534;2023-09-30T04:47:47;30.75;;;19.50;;
23121;SDS011;11730;51.248;22.534;2023-09-30T04:50:17;27.60;;;19.10;;
23121;SDS011;11730;51.248;22.534;2023-09-30T04:52:48;31.27;;;18.80;;
23121;SDS011;11730;51.248;22.534;2023-09-30T04:55:16;28.85;;;18.83;;
23121;SDS011;11730;51.248;22.534;2023-09-30T04:57:48;37.60;;;20.58;;
23121;SDS011;11730;51.248;22.534;2023-09-30T05:00:16;28.20;;;19.15;;
23121;SDS011;11730;51.248;22.534;2023-09-30T05:02:44;30.75;;;20.38;;
23121;SDS011;11730;51.248;22.534;2023-09-30T05:05:12;31.95;;;19.80;;
23121;SDS011;11730;51.248;22.534;2023-09-30T05:07:41;30.83;;;19.88;;
23121;SDS011;11730;51.248;22.534;2023-09-30T05:10:09;31.85;;;18.90;;
23121;SDS011;11730;51.248;22.534;2023-09-30T05:12:40;27.77;;;18.65;;
23121;SDS011;11730;51.248;22.534;2023-09-30T05:15:13;28.08;;;19.02;;
23121;SDS011;11730;51.248;22.534;2023-09-30T05:17:46;28.05;;;18.92;;
23121;SDS011;11730;51.248;22.534;2023-09-30T05:20:14;30.83;;;18.95;;
23121;SDS011;11730;51.248;22.534;2023-09-30T05:22:44;33.53;;;18.67;;
23121;SDS011;11730;51.248;22.534;2023-09-30T05:25:13;31.23;;;16.40;;
23121;SDS011;11730;51.248;22.534;2023-09-30T05:27:44;28.27;;;17.95;;
23121;SDS011;11730;51.248;22.534;2023-09-30T05:30:14;31.67;;;20.17;;
23121;SDS011;11730;51.248;22.534;2023-09-30T05:32:42;32.35;;;18.35;;
23121;SDS011;11730;51.248;22.534;2023-09-30T05:35:09;32.28;;;18.48;;
23121;SDS011;11730;51.248;22.534;2023-09-30T05:37:43;26.85;;;17.90;;
23121;SDS011;11730;51.248;22.534;2023-09-30T05:40:11;30.40;;;18.23;;
23121;SDS011;11730;51.248;22.534;2023-09-30T05:42:49;29.85;;;18.52;;
23121;SDS011;11730;51.248;22.534;2023-09-30T05:45:17;30.33;;;18.27;;
23121;SDS011;11730;51.248;22.534;2023-09-30T05:47:44;30.80;;;18.38;;
23121;SDS011;11730;51.248;22.534;2023-09-30T05:50:12;28.98;;;18.60;;
23121;SDS011;11730;51.248;22.534;2023-09-30T05:52:42;30.58;;;19.13;;
23121;SDS011;11730;51.248;22.534;2023-09-30T05:55:11;25.58;;;17.65;;
23121;SDS011;11730;51.248;22.534;2023-09-30T05:57:38;26.15;;;16.70;;
23121;SDS011;11730;51.248;22.534;2023-09-30T06:00:06;27.15;;;16.38;;
23121;SDS011;11730;51.248;22.534;2023-09-30T06:02:38;29.10;;;18.00;;
23121;SDS011;11730;51.248;22.534;2023-09-30T06:05:06;24.33;;;16.70;;
23121;SDS011;11730;51.248;22.534;2023-09-30T06:07:33;26.90;;;17.35;;
23121;SDS011;11730;51.248;22.534;2023-09-30T06:10:00;28.05;;;17.52;;
23121;SDS011;11730;51.248;22.534;2023-09-30T06:12:29;29.27;;;17.88;;
23121;SDS011;11730;51.248;22.534;2023-09-30T06:14:56;26.52;;;16.17;;
23121;SDS011;11730;51.248;22.534;2023-09-30T06:17:25;29.88;;;16.80;;
23121;SDS011;11730;51.248;22.534;2023-09-30T06:19:52;30.45;;;17.10;;
23121;SDS011;11730;51.248;22.534;2023-09-30T06:22:19;34.22;;;18.50;;
23121;SDS011;11730;51.248;22.534;2023-09-30T06:24:47;30.10;;;17.13;;
23121;SDS011;11730;51.248;22.534;2023-09-30T06:27:14;32.15;;;17.80;;
23121;SDS011;11730;51.248;22.534;2023-09-30T06:29:42;25.90;;;16.33;;
23121;SDS011;11730;51.248;22.534;2023-09-30T06:32:09;23.63;;;16.75;;
23121;SDS011;11730;51.248;22.534;2023-09-30T06:34:37;27.63;;;17.20;;
23121;SDS011;11730;51.248;22.534;2023-09-30T06:37:04;26.25;;;13.90;;
23121;SDS011;11730;51.248;22.534;2023-09-30T06:39:31;25.38;;;15.93;;
23121;SDS011;11730;51.248;22.534;2023-09-30T06:41:58;25.33;;;16.45;;
23121;SDS011;11730;51.248;22.534;2023-09-30T06:44:25;26.25;;;16.70;;
23121;SDS011;11730;51.248;22.534;2023-09-30T06:46:54;27.90;;;15.88;;
23121;SDS011;11730;51.248;22.534;2023-09-30T06:49:21;25.95;;;16.90;;
23121;SDS011;11730;51.248;22.534;2023-09-30T06:51:48;30.20;;;17.60;;
23121;SDS011;11730;51.248;22.534;2023-09-30T06:54:15;42.42;;;25.60;;
23121;SDS011;11730;51.248;22.534;2023-09-30T06:56:43;28.55;;;18.70;;
23121;SDS011;11730;51.248;22.534;2023-09-30T06:59:10;31.75;;;19.08;;
23121;SDS011;11730;51.248;22.534;2023-09-30T07:01:38;27.92;;;18.35;;
23121;SDS011;11730;51.248;22.534;2023-09-30T07:04:06;28.73;;;16.80;;
23121;SDS011;11730;51.248;22.534;2023-09-30T07:06:33;28.90;;;17.75;;
23121;SDS011;11730;51.248;22.534;2023-09-30T07:09:00;30.85;;;17.10;;
23121;SDS011;11730;51.248;22.534;2023-09-30T07:11:28;26.45;;;15.18;;
23121;SDS011;11730;51.248;22.534;2023-09-30T07:13:55;28.65;;;16.30;;
23121;SDS011;11730;51.248;22.534;2023-09-30T07:16:22;25.13;;;16.08;;
23121;SDS011;11730;51.248;22.534;2023-09-30T07:18:50;29.23;;;16.25;;
23121;SDS011;11730;51.248;22.534;2023-09-30T07:21:17;23.02;;;15.00;;
23121;SDS011;11730;51.248;22.534;2023-09-30T07:23:44;22.25;;;14.07;;
23121;SDS011;11730;51.248;22.534;2023-09-30T07:26:11;21.10;;;13.65;;
23121;SDS011;11730;51.248;22.534;2023-09-30T07:28:38;23.73;;;14.43;;
23121;SDS011;11730;51.248;22.534;2023-09-30T07:31:06;20.65;;;13.95;;
23121;SDS011;11730;51.248;22.534;2023-09-30T07:33:33;24.20;;;15.43;;
23121;SDS011;11730;51.248;22.534;2023-09-30T07:36:00;21.90;;;13.07;;
23121;SDS011;11730;51.248;22.534;2023-09-30T07:38:27;22.35;;;14.50;;
23121;SDS011;11730;51.248;22.534;2023-09-30T07:40:55;30.08;;;15.07;;
23121;SDS011;11730;51.248;22.534;2023-09-30T07:43:22;22.13;;;14.38;;
23121;SDS011;11730;51.248;22.534;2023-09-30T07:45:49;29.27;;;16.70;;
23121;SDS011;11730;51.248;22.534;2023-09-30T07:48:17;27.90;;;14.52;;
23121;SDS011;11730;51.248;22.534;2023-09-30T07:50:44;25.75;;;14.38;;
23121;SDS011;11730;51.248;22.534;2023-09-30T07:53:11;34.70;;;13.88;;
23121;SDS011;11730;51.248;22.534;2023-09-30T07:55:38;22.27;;;14.88;;
23121;SDS011;11730;51.248;22.534;2023-09-30T07:58:05;21.08;;;14.07;;
23121;SDS011;11730;51.248;22.534;2023-09-30T08:00:34;26.92;;;14.45;;
23121;SDS011;11730;51.248;22.534;2023-09-30T08:03:01;24.42;;;14.35;;
23121;SDS011;11730;51.248;22.534;2023-09-30T08:05:28;23.85;;;14.38;;
23121;SDS011;11730;51.248;22.534;2023-09-30T08:07:55;22.48;;;13.75;;
23121;SDS011;11730;51.248;22.534;2023-09-30T08:10:22;22.35;;;12.85;;
23121;SDS011;11730;51.248;22.534;2023-09-30T08:12:50;25.13;;;13.75;;
23121;SDS011;11730;51.248;22.534;2023-09-30T08:15:18;21.65;;;13.60;;
23121;SDS011;11730;51.248;22.534;2023-09-30T08:17:45;28.27;;;13.30;;
23121;SDS011;11730;51.248;22.534;2023-09-30T08:20:13;20.40;;;13.38;;
23121;SDS011;11730;51.248;22.534;2023-09-30T08:22:40;24.38;;;12.65;;
23121;SDS011;11730;51.248;22.534;2023-09-30T08:25:07;22.48;;;13.05;;
23121;SDS011;11730;51.248;22.534;2023-09-30T08:27:36;25.63;;;12.38;;
23121;SDS011;11730;51.248;22.534;2023-09-30T08:30:04;20.80;;;12.73;;
23121;SDS011;11730;51.248;22.534;2023-09-30T08:32:35;20.60;;;12.10;;
23121;SDS011;11730;51.248;22.534;2023-09-30T08:35:03;21.83;;;11.70;;
23121;SDS011;11730;51.248;22.534;2023-09-30T08:37:30;17.67;;;11.95;;
23121;SDS011;11730;51.248;22.534;2023-09-30T08:39:58;20.73;;;11.68;;
23121;SDS011;11730;51.248;22.534;2023-09-30T08:42:26;26.67;;;12.85;;
23121;SDS011;11730;51.248;22.534;2023-09-30T08:44:59;20.33;;;11.77;;
23121;SDS011;11730;51.248;22.534;2023-09-30T08:47:27;26.77;;;11.90;;
23121;SDS011;11730;51.248;22.534;2023-09-30T08:49:56;27.75;;;12.80;;
23121;SDS011;11730;51.248;22.534;2023-09-30T08:52:33;22.88;;;12.30;;
23121;SDS011;11730;51.248;22.534;2023-09-30T08:55:06;20.40;;;12.25;;
23121;SDS011;11730;51.248;22.534;2023-09-30T08:57:35;24.27;;;13.50;;
23121;SDS011;11730;51.248;22.534;2023-09-30T09:00:06;17.10;;;11.30;;
23121;SDS011;11730;51.248;22.534;2023-09-30T09:02:38;19.67;;;11.60;;
23121;SDS011;11730;51.248;22.534;2023-09-30T09:05:06;18.33;;;11.07;;
23121;SDS011;11730;51.248;22.534;2023-09-30T09:07:34;20.70;;;11.35;;
23121;SDS011;11730;51.248;22.534;2023-09-30T09:12:37;21.48;;;11.23;;
23121;SDS011;11730;51.248;22.534;2023-09-30T09:15:06;17.95;;;10.93;;
23121;SDS011;11730;51.248;22.534;2023-09-30T09:17:41;18.63;;;11.27;;
23121;SDS011;11730;51.248;22.534;2023-09-30T09:20:19;21.13;;;11.73;;
23121;SDS011;11730;51.248;22.534;2023-09-30T09:22:52;21.20;;;12.00;;
23121;SDS011;11730;51.248;22.534;2023-09-30T09:25:22;20.23;;;12.10;;
23121;SDS011;11730;51.248;22.534;2023-09-30T09:27:50;27.90;;;12.02;;
23121;SDS011;11730;51.248;22.534;2023-09-30T09:30:22;21.13;;;12.80;;
23121;SDS011;11730;51.248;22.534;2023-09-30T09:33:08;20.45;;;11.90;;
23121;SDS011;11730;51.248;22.534;2023-09-30T09:35:35;16.80;;;12.05;;
23121;SDS011;11730;51.248;22.534;2023-09-30T09:38:06;20.38;;;12.57;;
23121;SDS011;11730;51.248;22.534;2023-09-30T09:40:35;19.70;;;12.27;;
23121;SDS011;11730;51.248;22.534;2023-09-30T09:43:02;19.48;;;13.00;;
23121;SDS011;11730;51.248;22.534;2023-09-30T09:45:33;23.15;;;13.43;;
23121;SDS011;11730;51.248;22.534;2023-09-30T09:48:01;18.02;;;12.38;;
23121;SDS011;11730;51.248;22.534;2023-09-30T09:50:31;22.38;;;13.13;;
23121;SDS011;11730;51.248;22.534;2023-09-30T09:52:59;19.13;;;11.70;;
23121;SDS011;11730;51.248;22.534;2023-09-30T09:55:27;18.17;;;11.75;;
23121;SDS011;11730;51.248;22.534;2023-09-30T09:57:54;18.55;;;10.88;;
23121;SDS011;11730;51.248;22.534;2023-09-30T10:00:25;19.05;;;10.73;;
23121;SDS011;11730;51.248;22.534;2023-09-30T10:02:53;20.58;;;12.10;;
23121;SDS011;11730;51.248;22.534;2023-09-30T10:05:21;22.92;;;12.48;;
23121;SDS011;11730;51.248;22.534;2023-09-30T10:08:00;18.00;;;11.60;;
23121;SDS011;11730;51.248;22.534;2023-09-30T10:10:40;15.80;;;10.55;;
23121;SDS011;11730;51.248;22.534;2023-09-30T10:13:08;16.65;;;10.48;;
23121;SDS011;11730;51.248;22.534;2023-09-30T10:15:37;18.95;;;10.43;;
23121;SDS011;11730;51.248;22.534;2023-09-30T10:18:07;15.93;;;10.52;;
23121;SDS011;11730;51.248;22.534;2023-09-30T10:20:42;17.25;;;10.68;;
23121;SDS011;11730;51.248;22.534;2023-09-30T10:23:23;17.90;;;11.00;;
23121;SDS011;11730;51.248;22.534;2023-09-30T10:25:54;18.58;;;11.05;;
23121;SDS011;11730;51.248;22.534;2023-09-30T10:28:41;18.55;;;10.63;;
23121;SDS011;11730;51.248;22.534;2023-09-30T10:31:14;16.85;;;11.05;;
23121;SDS011;11730;51.248;22.534;2023-09-30T10:36:29;16.30;;;10.47;;
23121;SDS011;11730;51.248;22.534;2023-09-30T10:38:58;18.17;;;9.85;;
23121;SDS011;11730;51.248;22.534;2023-09-30T10:46:58;16.08;;;9.88;;
23121;SDS011;11730;51.248;22.534;2023-09-30T10:49:29;19.40;;;10.40;;
23121;SDS011;11730;51.248;22.534;2023-09-30T10:54:32;14.45;;;9.07;;
23121;SDS011;11730;51.248;22.534;2023-09-30T10:57:00;14.85;;;9.52;;
23121;SDS011;11730;51.248;22.534;2023-09-30T10:59:30;15.07;;;9.15;;
23121;SDS011;11730;51.248;22.534;2023-09-30T11:01:58;12.10;;;8.90;;
23121;SDS011;11730;51.248;22.534;2023-09-30T11:04:26;17.88;;;8.20;;
23121;SDS011;11730;51.248;22.534;2023-09-30T11:06:55;12.63;;;7.93;;
23121;SDS011;11730;51.248;22.534;2023-09-30T11:09:22;13.88;;;8.05;;
23121;SDS011;11730;51.248;22.534;2023-09-30T11:11:50;15.10;;;8.57;;
23121;SDS011;11730;51.248;22.534;2023-09-30T11:14:24;15.95;;;8.70;;
23121;SDS011;11730;51.248;22.534;2023-09-30T11:17:02;14.77;;;9.02;;
23121;SDS011;11730;51.248;22.534;2023-09-30T11:19:36;16.75;;;9.07;;
23121;SDS011;11730;51.248;22.534;2023-09-30T11:22:12;12.73;;;8.25;;
23121;SDS011;11730;51.248;22.534;2023-09-30T11:24:41;14.30;;;8.77;;
23121;SDS011;11730;51.248;22.534;2023-09-30T11:27:08;16.20;;;8.35;;
23121;SDS011;11730;51.248;22.534;2023-09-30T11:29:35;12.23;;;9.02;;
23121;SDS011;11730;51.248;22.534;2023-09-30T11:32:02;14.90;;;9.48;;
23121;SDS011;11730;51.248;22.534;2023-09-30T11:34:33;17.83;;;10.60;;
23121;SDS011;11730;51.248;22.534;2023-09-30T11:37:05;15.50;;;11.65;;
23121;SDS011;11730;51.248;22.534;2023-09-30T11:39:32;19.00;;;11.30;;
23121;SDS011;11730;51.248;22.534;2023-09-30T11:42:00;16.52;;;11.32;;
23121;SDS011;11730;51.248;22.534;2023-09-30T11:44:27;16.58;;;10.00;;
23121;SDS011;11730;51.248;22.534;2023-09-30T11:46:58;14.90;;;10.65;;
23121;SDS011;11730;51.248;22.534;2023-09-30T11:49:33;17.52;;;10.57;;
23121;SDS011;11730;51.248;22.534;2023-09-30T11:52:06;17.50;;;11.25;;
23121;SDS011;11730;51.248;22.534;2023-09-30T11:57:03;17.10;;;10.60;;
23121;SDS011;11730;51.248;22.534;2023-09-30T11:59:31;17.05;;;11.45;;
23121;SDS011;11730;51.248;22.534;2023-09-30T12:01:58;20.00;;;10.80;;
23121;SDS011;11730;51.248;22.534;2023-09-30T12:04:29;15.65;;;11.38;;
23121;SDS011;11730;51.248;22.534;2023-09-30T12:06:56;16.30;;;11.50;;
23121;SDS011;11730;51.248;22.534;2023-09-30T12:09:24;16.23;;;10.82;;
23121;SDS011;11730;51.248;22.534;2023-09-30T12:11:53;18.35;;;11.30;;
23121;SDS011;11730;51.248;22.534;2023-09-30T12:14:20;16.40;;;11.90;;
23121;SDS011;11730;51.248;22.534;2023-09-30T12:16:48;17.65;;;12.07;;
23121;SDS011;11730;51.248;22.534;2023-09-30T12:19:15;17.63;;;12.75;;
23121;SDS011;11730;51.248;22.534;2023-09-30T12:21:42;23.63;;;13.52;;
23121;SDS011;11730;51.248;22.534;2023-09-30T12:24:13;23.98;;;14.40;;
23121;SDS011;11730;51.248;22.534;2023-09-30T12:26:48;26.30;;;14.98;;
23121;SDS011;11730;51.248;22.534;2023-09-30T12:29:16;23.23;;;15.35;;
23121;SDS011;11730;51.248;22.534;2023-09-30T12:31:45;23.88;;;16.02;;
23121;SDS011;11730;51.248;22.534;2023-09-30T12:34:19;23.50;;;16.05;;
23121;SDS011;11730;51.248;22.534;2023-09-30T12:36:46;27.90;;;16.73;;
23121;SDS011;11730;51.248;22.534;2023-09-30T12:39:14;25.33;;;16.45;;
23121;SDS011;11730;51.248;22.534;2023-09-30T12:41:44;25.27;;;16.20;;
23121;SDS011;11730;51.248;22.534;2023-09-30T12:44:12;27.02;;;18.35;;
23121;SDS011;11730;51.248;22.534;2023-09-30T12:46:39;29.25;;;17.88;;
23121;SDS011;11730;51.248;22.534;2023-09-30T12:49:07;28.02;;;18.40;;
23121;SDS011;11730;51.248;22.534;2023-09-30T12:51:35;27.58;;;18.20;;
23121;SDS011;11730;51.248;22.534;2023-09-30T12:54:05;26.35;;;18.42;;
23121;SDS011;11730;51.248;22.534;2023-09-30T12:56:34;26.25;;;18.42;;
23121;SDS011;11730;51.248;22.534;2023-09-30T12:59:01;26.55;;;19.40;;
23121;SDS011;11730;51.248;22.534;2023-09-30T13:01:29;28.90;;;19.58;;
23121;SDS011;11730;51.248;22.534;2023-09-30T13:04:00;26.60;;;18.92;;
23121;SDS011;11730;51.248;22.534;2023-09-30T13:06:28;35.63;;;20.40;;
23121;SDS011;11730;51.248;22.534;2023-09-30T13:08:56;30.13;;;19.92;;
23121;SDS011;11730;51.248;22.534;2023-09-30T13:11:24;28.85;;;20.33;;
23121;SDS011;11730;51.248;22.534;2023-09-30T13:13:52;33.10;;;20.52;;
23121;SDS011;11730;51.248;22.534;2023-09-30T13:16:19;28.27;;;20.40;;
23121;SDS011;11730;51.248;22.534;2023-09-30T13:18:47;33.70;;;21.77;;
23121;SDS011;11730;51.248;22.534;2023-09-30T13:21:14;33.03;;;22.33;;
23121;SDS011;11730;51.248;22.534;2023-09-30T13:23:42;32.45;;;22.60;;
23121;SDS011;11730;51.248;22.534;2023-09-30T13:26:09;37.25;;;22.48;;
23121;SDS011;11730;51.248;22.534;2023-09-30T13:28:37;33.80;;;21.95;;
23121;SDS011;11730;51.248;22.534;2023-09-30T13:31:04;34.13;;;23.27;;
23121;SDS011;11730;51.248;22.534;2023-09-30T13:33:31;38.08;;;23.65;;
23121;SDS011;11730;51.248;22.534;2023-09-30T13:35:58;33.42;;;23.48;;
23121;SDS011;11730;51.248;22.534;2023-09-30T13:38:26;34.17;;;23.25;;
23121;SDS011;11730;51.248;22.534;2023-09-30T13:40:54;36.95;;;22.23;;
23121;SDS011;11730;51.248;22.534;2023-09-30T13:43:22;36.08;;;23.33;;
23121;SDS011;11730;51.248;22.534;2023-09-30T13:45:49;33.83;;;23.38;;
23121;SDS011;11730;51.248;22.534;2023-09-30T13:48:17;38.17;;;26.33;;
23121;SDS011;11730;51.248;22.534;2023-09-30T13:50:44;44.25;;;27.30;;
23121;SDS011;11730;51.248;22.534;2023-09-30T13:53:12;45.88;;;30.55;;
23121;SDS011;11730;51.248;22.534;2023-09-30T13:55:39;51.15;;;32.95;;
23121;SDS011;11730;51.248;22.534;2023-09-30T13:58:06;58.30;;;33.22;;
23121;SDS011;11730;51.248;22.534;2023-09-30T14:00:34;54.72;;;34.22;;
23121;SDS011;11730;51.248;22.534;2023-09-30T14:03:01;63.35;;;37.42;;
23121;SDS011;11730;51.248;22.534;2023-09-30T14:05:29;57.40;;;35.22;;
23121;SDS011;11730;51.248;22.534;2023-09-30T14:07:56;54.38;;;32.25;;
23121;SDS011;11730;51.248;22.534;2023-09-30T14:10:24;52.10;;;33.20;;
23121;SDS011;11730;51.248;22.534;2023-09-30T14:12:51;50.17;;;30.80;;
23121;SDS011;11730;51.248;22.534;2023-09-30T14:15:18;48.20;;;29.30;;
23121;SDS011;11730;51.248;22.534;2023-09-30T14:17:46;45.55;;;26.60;;
23121;SDS011;11730;51.248;22.534;2023-09-30T14:20:14;40.08;;;23.63;;
23121;SDS011;11730;51.248;22.534;2023-09-30T14:22:41;33.88;;;22.73;;
23121;SDS011;11730;51.248;22.534;2023-09-30T14:25:08;31.27;;;20.55;;
23121;SDS011;11730;51.248;22.534;2023-09-30T14:27:35;27.75;;;17.88;;
23121;SDS011;11730;51.248;22.534;2023-09-30T14:30:02;29.35;;;18.30;;
23121;SDS011;11730;51.248;22.534;2023-09-30T14:32:34;24.73;;;16.83;;